NCAR-RAP Real-Time Weather Data

Output produced by METARs form (08 May 2021  15:22 UTC)
found at http://weather.rap.ucar.edu/surface/
 
KMBG 081452Z AUTO 10017KT 6SM RA OVC050 04/01 A2995 RMK AO2 PK WND 11031/1424 SLP150 P0029 60034 T00390006 50019
KMBG 081425Z AUTO 11024G31KT 3SM RA OVC032 04/01 A2996 RMK AO2 PK WND 11031/1424 P0013 T00440006
KMBG 081352Z AUTO 12017G27KT 5SM RA OVC024 06/01 A2999 RMK AO2 PK WND 12027/1343 RAB03 SLP163 P0005 T00610006
KMBG 081342Z AUTO 10012KT 9SM RA OVC028 07/00 A3000 RMK AO2 RAB03 P0002 T00670000
KMBG 081252Z AUTO 09012KT 10SM BKN050 OVC060 08/M02 A2996 RMK AO2 SLP148 T00781022
KMBG 081152Z AUTO 11011G20KT 10SM FEW070 OVC085 07/M02 A2989 RMK AO2 PK WND 11027/1123 RAE19 SLP124 P0001 60001 70001 T00721022 10100 20067 55015
KMBG 081052Z AUTO 11017G28KT 10SM -RA FEW060 OVC090 08/M03 A2988 RMK AO2 PK WND 11028/1044 RAB47 SLP121 P0000 T00831028
KMBG 080952Z AUTO 12017G23KT 10SM OVC090 09/M06 A2994 RMK AO2 PK WND 11026/0923 SLP138 T00941056
KMBG 080852Z AUTO 10017G26KT 10SM OVC095 09/M06 A2993 RMK AO2 PK WND 10028/0801 SLP138 T00941056 55004
KMBG 080752Z AUTO 10016G24KT 10SM OVC085 10/M06 A2993 RMK AO2 SLP137 T01001056
KMBG 080652Z AUTO 10016G23KT 10SM BKN085 09/M05 A2995 RMK AO2 PK WND 10026/0620 SLP143 T00941050
KMBG 080552Z AUTO 09018G24KT 10SM BKN085 09/M04 A2995 RMK AO2 PK WND 08027/0528 SLP144 T00891044 10167 20089 401830028 58016
KMBG 080452Z AUTO 09017G24KT 10SM CLR 09/M04 A2998 RMK AO2 PK WND 08026/0436 SLP155 T00891044
KMBG 080352Z AUTO 09014KT 10SM CLR 09/M05 A3000 RMK AO2 SLP164 T00891050
KMBG 080252Z AUTO 09012KT 10SM CLR 10/M06 A3000 RMK AO2 SLP163 T01001056 53005
KMBG 080152Z AUTO 10011KT 10SM CLR 12/M07 A2999 RMK AO2 SLP160 T01171067
KMBG 080052Z AUTO 11015KT 10SM CLR 14/M06 A2998 RMK AO2 SLP157 T01441061